createdAt,value
2024-03-16T00:01:02.046Z,8.60
2024-03-16T00:03:30.580Z,8.80
2024-03-16T00:05:58.548Z,8.05
2024-03-16T00:08:26.351Z,9.15
2024-03-16T00:10:54.169Z,8.20
2024-03-16T00:13:21.985Z,8.30
2024-03-16T00:15:50.442Z,8.68
2024-03-16T00:18:18.377Z,8.90
2024-03-16T00:20:46.183Z,9.82
2024-03-16T00:23:14.016Z,8.70
2024-03-16T00:25:41.797Z,9.07
2024-03-16T00:28:09.726Z,9.02
2024-03-16T00:30:37.524Z,8.52
2024-03-16T00:33:05.972Z,8.90
2024-03-16T00:35:33.788Z,8.55
2024-03-16T00:38:01.585Z,9.13
2024-03-16T00:40:29.368Z,9.27
2024-03-16T00:42:57.264Z,9.05
2024-03-16T00:45:25.296Z,9.35
2024-03-16T00:47:53.240Z,8.73
2024-03-16T00:50:21.025Z,9.05
2024-03-16T00:52:48.820Z,9.32
2024-03-16T00:55:16.689Z,8.98
2024-03-16T00:57:44.579Z,8.68
2024-03-16T01:00:15.696Z,8.40
2024-03-16T01:02:43.574Z,8.23
2024-03-16T01:05:12.626Z,8.80
2024-03-16T01:07:40.442Z,9.10
2024-03-16T01:10:09.066Z,8.13
2024-03-16T01:12:37.112Z,8.48
2024-03-16T01:15:05.341Z,8.57
2024-03-16T01:17:33.211Z,8.05
2024-03-16T01:20:01.366Z,8.77
2024-03-16T01:22:29.176Z,8.32
2024-03-16T01:24:57.119Z,8.57
2024-03-16T01:27:25.006Z,7.97
2024-03-16T01:29:52.795Z,8.13
2024-03-16T01:32:20.631Z,8.30
2024-03-16T01:34:48.436Z,8.50
2024-03-16T01:37:17.379Z,8.65
2024-03-16T01:39:45.957Z,8.05
2024-03-16T01:42:14.074Z,8.32
2024-03-16T01:44:41.911Z,7.65
2024-03-16T01:47:10.052Z,7.90
2024-03-16T01:49:37.989Z,7.80
2024-03-16T01:52:06.731Z,7.78
2024-03-16T01:54:34.629Z,7.88
2024-03-16T01:57:02.444Z,7.55
2024-03-16T01:59:30.286Z,7.45
2024-03-16T02:01:58.203Z,8.15
2024-03-16T02:04:25.998Z,8.02
2024-03-16T02:06:54.005Z,8.70
2024-03-16T02:09:22.348Z,7.75
2024-03-16T02:11:50.984Z,7.40
2024-03-16T02:14:18.868Z,7.40
2024-03-16T02:16:45.854Z,7.95
2024-03-16T02:19:13.616Z,7.25
2024-03-16T02:21:41.430Z,7.15
2024-03-16T02:24:10.001Z,7.65
2024-03-16T02:26:37.855Z,7.35
2024-03-16T02:29:06.258Z,7.60
2024-03-16T02:31:37.899Z,7.63
2024-03-16T02:34:08.515Z,7.70
2024-03-16T02:36:36.451Z,7.30
2024-03-16T02:39:04.364Z,7.15
2024-03-16T02:41:32.673Z,7.78
2024-03-16T02:44:00.514Z,6.93
2024-03-16T02:46:28.376Z,7.05
2024-03-16T02:48:56.775Z,6.75
2024-03-16T02:51:24.730Z,6.72
2024-03-16T02:53:52.750Z,6.93
2024-03-16T02:56:21.030Z,6.78
2024-03-16T02:58:48.840Z,7.20
2024-03-16T03:01:17.667Z,6.53
2024-03-16T03:03:45.710Z,7.07
2024-03-16T03:06:13.772Z,6.90
2024-03-16T03:08:41.547Z,6.80
2024-03-16T03:11:09.996Z,7.55
2024-03-16T03:13:37.879Z,6.90
2024-03-16T03:16:06.020Z,6.80
2024-03-16T03:18:33.817Z,7.15
2024-03-16T03:21:01.754Z,6.82
2024-03-16T03:23:29.783Z,7.10
2024-03-16T03:25:57.748Z,6.53
2024-03-16T03:28:25.581Z,6.45
2024-03-16T03:30:54.706Z,6.53
2024-03-16T03:33:22.629Z,6.68
2024-03-16T03:35:50.423Z,6.63
2024-03-16T03:38:18.202Z,6.78
2024-03-16T03:40:46.011Z,6.68
2024-03-16T03:43:20.655Z,6.75
2024-03-16T03:45:52.267Z,6.57
2024-03-16T03:48:42.261Z,6.90
2024-03-16T03:51:10.268Z,6.55
2024-03-16T03:53:38.062Z,6.80
2024-03-16T03:56:06.012Z,6.78
2024-03-16T03:58:33.872Z,6.80
2024-03-16T04:01:02.040Z,6.63
2024-03-16T04:03:29.965Z,6.70
2024-03-16T04:05:57.874Z,6.60
2024-03-16T04:08:25.678Z,6.70
2024-03-16T04:10:53.500Z,6.80
2024-03-16T04:13:21.309Z,6.53
2024-03-16T04:15:50.471Z,6.80
2024-03-16T04:18:17.346Z,6.78
2024-03-16T04:20:45.152Z,7.15
2024-03-16T04:23:13.621Z,6.90
2024-03-16T04:25:41.410Z,6.70
2024-03-16T04:28:10.723Z,6.68
2024-03-16T04:30:38.569Z,6.60
2024-03-16T04:33:08.374Z,6.50
2024-03-16T04:35:36.237Z,6.53
2024-03-16T04:38:04.084Z,6.65
2024-03-16T04:40:32.024Z,6.70
2024-03-16T04:42:59.892Z,6.70
2024-03-16T04:45:27.979Z,7.00
2024-03-16T04:47:55.927Z,6.60
2024-03-16T04:50:25.271Z,6.63
2024-03-16T04:52:53.102Z,6.53
2024-03-16T04:55:20.962Z,6.80
2024-03-16T04:57:48.856Z,6.93
2024-03-16T05:00:16.842Z,6.68
2024-03-16T05:02:44.655Z,6.80
2024-03-16T05:05:12.454Z,6.80
2024-03-16T05:07:40.291Z,6.90
2024-03-16T05:10:09.951Z,6.95
2024-03-16T05:12:38.138Z,6.60
2024-03-16T05:15:06.731Z,6.75
2024-03-16T05:17:34.810Z,7.40
2024-03-16T05:20:02.696Z,6.80
2024-03-16T05:22:31.114Z,6.72
2024-03-16T05:24:58.948Z,6.90
2024-03-16T05:27:28.476Z,6.95
2024-03-16T05:29:57.049Z,6.93
2024-03-16T05:32:25.323Z,6.60
2024-03-16T05:34:53.236Z,7.05
2024-03-16T05:37:21.046Z,7.00
2024-03-16T05:39:49.363Z,6.90
2024-03-16T05:42:17.193Z,7.28
2024-03-16T05:44:45.015Z,7.18
2024-03-16T05:47:12.917Z,6.75
2024-03-16T05:49:41.404Z,6.65
2024-03-16T05:52:09.298Z,6.57
2024-03-16T05:54:37.092Z,7.00
2024-03-16T05:57:05.042Z,6.88
2024-03-16T05:59:34.656Z,7.07
2024-03-16T06:02:02.690Z,6.75
2024-03-16T06:04:30.561Z,7.40
2024-03-16T06:06:58.397Z,7.28
2024-03-16T06:09:26.190Z,7.57
2024-03-16T06:11:54.067Z,6.82
2024-03-16T06:14:21.863Z,6.88
2024-03-16T06:16:49.700Z,6.85
2024-03-16T06:19:17.620Z,7.43
2024-03-16T06:21:46.691Z,7.07
2024-03-16T06:24:14.957Z,7.10
2024-03-16T06:26:49.906Z,7.20
2024-03-16T06:29:19.277Z,6.80
2024-03-16T06:31:57.345Z,7.00
2024-03-16T06:34:26.237Z,6.88
2024-03-16T06:36:54.562Z,7.43
2024-03-16T06:39:22.943Z,7.40
2024-03-16T06:41:50.988Z,7.28
2024-03-16T06:44:19.015Z,7.03
2024-03-16T06:46:46.860Z,7.43
2024-03-16T06:49:17.512Z,7.18
2024-03-16T06:51:45.473Z,7.25
2024-03-16T06:54:14.115Z,7.25
2024-03-16T06:56:41.936Z,7.18
2024-03-16T06:59:09.728Z,7.50
2024-03-16T07:01:37.615Z,7.70
2024-03-16T07:04:05.559Z,7.80
2024-03-16T07:06:33.411Z,7.47
2024-03-16T07:09:04.221Z,8.00
2024-03-16T07:11:32.112Z,7.70
2024-03-16T07:14:00.020Z,7.50
2024-03-16T07:16:27.874Z,8.00
2024-03-16T07:18:55.698Z,7.93
2024-03-16T07:21:25.710Z,8.00
2024-03-16T07:23:55.145Z,8.18
2024-03-16T07:26:22.979Z,7.95
2024-03-16T07:28:51.133Z,8.20
2024-03-16T07:31:19.006Z,8.13
2024-03-16T07:33:46.960Z,8.20
2024-03-16T07:36:14.806Z,8.00
2024-03-16T07:38:42.595Z,8.23
2024-03-16T07:41:10.398Z,7.93
2024-03-16T07:43:38.194Z,7.97
2024-03-16T07:46:06.220Z,8.25
2024-03-16T07:48:34.085Z,8.10
2024-03-16T07:51:02.191Z,8.43
2024-03-16T07:53:30.288Z,8.20
2024-03-16T07:55:59.325Z,8.40
2024-03-16T07:58:27.861Z,8.13
2024-03-16T08:00:55.788Z,8.43
2024-03-16T08:03:23.607Z,9.00
2024-03-16T08:05:51.486Z,8.95
2024-03-16T08:08:19.305Z,8.25
2024-03-16T08:10:47.118Z,8.90
2024-03-16T08:13:15.025Z,8.45
2024-03-16T08:15:43.127Z,8.35
2024-03-16T08:18:12.400Z,8.23
2024-03-16T08:20:40.377Z,8.63
2024-03-16T08:23:08.158Z,8.20
2024-03-16T08:25:35.953Z,8.52
2024-03-16T08:28:04.007Z,8.57
2024-03-16T08:30:32.075Z,8.70
2024-03-16T08:32:59.943Z,8.75
2024-03-16T08:35:27.793Z,9.00
2024-03-16T08:37:55.598Z,8.68
2024-03-16T08:40:23.484Z,9.38
2024-03-16T08:42:52.755Z,8.68
2024-03-16T08:45:20.688Z,8.80
2024-03-16T08:47:48.532Z,8.70
2024-03-16T08:50:16.414Z,8.75
2024-03-16T08:52:44.585Z,8.90
2024-03-16T08:55:14.685Z,8.98
2024-03-16T08:57:43.126Z,9.00
2024-03-16T09:00:14.701Z,9.13
2024-03-16T09:02:42.545Z,9.57
2024-03-16T09:05:10.410Z,8.77
2024-03-16T09:07:39.564Z,9.18
2024-03-16T09:10:08.523Z,11.00
2024-03-16T09:12:36.848Z,9.77
2024-03-16T09:15:06.518Z,9.73
2024-03-16T09:17:35.122Z,9.95
2024-03-16T09:20:08.385Z,9.60
2024-03-16T09:22:37.643Z,9.13
2024-03-16T09:25:07.246Z,9.05
2024-03-16T09:27:35.587Z,9.27
2024-03-16T09:30:05.749Z,9.38
2024-03-16T09:32:33.587Z,9.50
2024-03-16T09:35:01.431Z,9.48
2024-03-16T09:37:29.213Z,9.00
2024-03-16T09:39:57.074Z,9.88
2024-03-16T09:42:25.126Z,9.98
